sensor_id;sensor_type;location;lat;lon;timestamp;pressure;altitude;pressure_sealevel;temperature;humidity
55914;BME280;58179;48.776;9.124;2023-06-24T00:01:15;98198.22;;;17.05;100.00
55914;BME280;58179;48.776;9.124;2023-06-24T00:03:41;98196.88;;;17.02;100.00
55914;BME280;58179;48.776;9.124;2023-06-24T00:06:12;98202.75;;;16.99;100.00
55914;BME280;58179;48.776;9.124;2023-06-24T00:08:44;98208.13;;;16.94;100.00
55914;BME280;58179;48.776;9.124;2023-06-24T00:11:11;98211.59;;;16.94;100.00
55914;BME280;58179;48.776;9.124;2023-06-24T00:13:38;98206.78;;;16.96;100.00
55914;BME280;58179;48.776;9.124;2023-06-24T00:16:06;98200.38;;;16.97;100.00
55914;BME280;58179;48.776;9.124;2023-06-24T00:18:34;98206.00;;;16.96;100.00
55914;BME280;58179;48.776;9.124;2023-06-24T00:21:01;98207.06;;;16.95;100.00
55914;BME280;58179;48.776;9.124;2023-06-24T00:23:29;98199.31;;;16.93;100.00
55914;BME280;58179;48.776;9.124;2023-06-24T00:25:57;98210.28;;;16.87;100.00
55914;BME280;58179;48.776;9.124;2023-06-24T00:28:23;98205.50;;;16.79;100.00
55914;BME280;58179;48.776;9.124;2023-06-24T00:30:50;98207.13;;;16.75;100.00
55914;BME280;58179;48.776;9.124;2023-06-24T00:33:17;98198.28;;;16.69;100.00
55914;BME280;58179;48.776;9.124;2023-06-24T00:35:45;98200.72;;;16.66;100.00
55914;BME280;58179;48.776;9.124;2023-06-24T00:38:12;98196.69;;;16.63;100.00
55914;BME280;58179;48.776;9.124;2023-06-24T00:40:38;98198.84;;;16.61;100.00
55914;BME280;58179;48.776;9.124;2023-06-24T00:43:05;98196.69;;;16.63;100.00
55914;BME280;58179;48.776;9.124;2023-06-24T00:45:32;98200.41;;;16.57;100.00
55914;BME280;58179;48.776;9.124;2023-06-24T00:47:58;98200.94;;;16.54;100.00
55914;BME280;58179;48.776;9.124;2023-06-24T00:50:28;98198.81;;;16.51;100.00
55914;BME280;58179;48.776;9.124;2023-06-24T00:52:54;98196.16;;;16.46;100.00
55914;BME280;58179;48.776;9.124;2023-06-24T00:55:22;98200.97;;;16.44;100.00
55914;BME280;58179;48.776;9.124;2023-06-24T00:57:50;98197.75;;;16.42;100.00
55914;BME280;58179;48.776;9.124;2023-06-24T01:00:18;98205.22;;;16.40;100.00
55914;BME280;58179;48.776;9.124;2023-06-24T01:02:47;98201.75;;;16.39;100.00
55914;BME280;58179;48.776;9.124;2023-06-24T01:05:15;98206.03;;;16.40;100.00
55914;BME280;58179;48.776;9.124;2023-06-24T01:07:43;98208.44;;;16.42;100.00
55914;BME280;58179;48.776;9.124;2023-06-24T01:10:10;98203.38;;;16.40;100.00
55914;BME280;58179;48.776;9.124;2023-06-24T01:12:39;98204.44;;;16.39;100.00
55914;BME280;58179;48.776;9.124;2023-06-24T01:15:07;98199.66;;;16.36;100.00
55914;BME280;58179;48.776;9.124;2023-06-24T01:17:37;98202.31;;;16.31;100.00
55914;BME280;58179;48.776;9.124;2023-06-24T01:20:10;98195.34;;;16.25;100.00
55914;BME280;58179;48.776;9.124;2023-06-24T01:23:05;98202.06;;;16.22;100.00
55914;BME280;58179;48.776;9.124;2023-06-24T01:25:44;98196.44;;;16.19;100.00
55914;BME280;58179;48.776;9.124;2023-06-24T01:28:30;98195.88;;;16.17;100.00
55914;BME280;58179;48.776;9.124;2023-06-24T01:31:25;98194.84;;;16.13;100.00
55914;BME280;58179;48.776;9.124;2023-06-24T01:34:01;98202.84;;;16.08;100.00
55914;BME280;58179;48.776;9.124;2023-06-24T01:36:30;98198.84;;;16.05;100.00
55914;BME280;58179;48.776;9.124;2023-06-24T01:39:02;98199.34;;;16.02;100.00
55914;BME280;58179;48.776;9.124;2023-06-24T01:41:34;98190.53;;;16.02;100.00
55914;BME280;58179;48.776;9.124;2023-06-24T01:44:01;98191.34;;;16.02;100.00
55914;BME280;58179;48.776;9.124;2023-06-24T01:46:31;98195.38;;;16.00;100.00
55914;BME280;58179;48.776;9.124;2023-06-24T01:49:01;98197.22;;;15.99;100.00
55914;BME280;58179;48.776;9.124;2023-06-24T01:51:30;98194.81;;;15.93;100.00
55914;BME280;58179;48.776;9.124;2023-06-24T01:54:02;98199.06;;;15.88;100.00
55914;BME280;58179;48.776;9.124;2023-06-24T01:56:29;98190.25;;;15.83;100.00
55914;BME280;58179;48.776;9.124;2023-06-24T01:58:58;98186.78;;;15.82;100.00
55914;BME280;58179;48.776;9.124;2023-06-24T02:01:28;98188.13;;;15.80;100.00
55914;BME280;58179;48.776;9.124;2023-06-24T02:03:56;98187.59;;;15.78;100.00
55914;BME280;58179;48.776;9.124;2023-06-24T02:06:24;98182.50;;;15.81;100.00
55914;BME280;58179;48.776;9.124;2023-06-24T02:08:53;98177.72;;;15.78;100.00
55914;BME280;58179;48.776;9.124;2023-06-24T02:11:22;98180.66;;;15.77;100.00
55914;BME280;58179;48.776;9.124;2023-06-24T02:13:51;98191.34;;;15.77;100.00
55914;BME280;58179;48.776;9.124;2023-06-24T02:16:21;98179.84;;;15.76;100.00
55914;BME280;58179;48.776;9.124;2023-06-24T02:18:49;98183.06;;;15.78;100.00
55914;BME280;58179;48.776;9.124;2023-06-24T02:21:17;98175.81;;;15.74;100.00
55914;BME280;58179;48.776;9.124;2023-06-24T02:23:45;98177.69;;;15.73;100.00
55914;BME280;58179;48.776;9.124;2023-06-24T02:26:12;98173.72;;;15.71;100.00
55914;BME280;58179;48.776;9.124;2023-06-24T02:28:39;98168.63;;;15.74;100.00
55914;BME280;58179;48.776;9.124;2023-06-24T02:31:06;98167.81;;;15.74;100.00
55914;BME280;58179;48.776;9.124;2023-06-24T02:33:35;98167.81;;;15.74;100.00
55914;BME280;58179;48.776;9.124;2023-06-24T02:36:02;98169.69;;;15.73;100.00
55914;BME280;58179;48.776;9.124;2023-06-24T02:38:29;98166.47;;;15.71;100.00
55914;BME280;58179;48.776;9.124;2023-06-24T02:40:55;98163.81;;;15.71;100.00
55914;BME280;58179;48.776;9.124;2023-06-24T02:43:22;98161.41;;;15.70;100.00
55914;BME280;58179;48.776;9.124;2023-06-24T02:45:49;98163.53;;;15.68;100.00
55914;BME280;58179;48.776;9.124;2023-06-24T02:48:17;98161.94;;;15.67;100.00
55914;BME280;58179;48.776;9.124;2023-06-24T02:50:45;98169.41;;;15.65;100.00
55914;BME280;58179;48.776;9.124;2023-06-24T02:53:14;98172.88;;;15.65;100.00
55914;BME280;58179;48.776;9.124;2023-06-24T02:55:41;98167.53;;;15.65;100.00
55914;BME280;58179;48.776;9.124;2023-06-24T02:58:09;98172.63;;;15.67;100.00
55914;BME280;58179;48.776;9.124;2023-06-24T03:00:37;98167.03;;;15.63;100.00
55914;BME280;58179;48.776;9.124;2023-06-24T03:03:04;98167.53;;;15.60;100.00
55914;BME280;58179;48.776;9.124;2023-06-24T03:05:33;98174.19;;;15.58;100.00
55914;BME280;58179;48.776;9.124;2023-06-24T03:08:01;98172.31;;;15.53;100.00
55914;BME280;58179;48.776;9.124;2023-06-24T03:10:31;98183.47;;;15.50;100.00
55914;BME280;58179;48.776;9.124;2023-06-24T03:12:57;98172.28;;;15.48;100.00
55914;BME280;58179;48.776;9.124;2023-06-24T03:15:23;98183.78;;;15.48;100.00
55914;BME280;58179;48.776;9.124;2023-06-24T03:17:51;98185.34;;;15.49;100.00
55914;BME280;58179;48.776;9.124;2023-06-24T03:20:17;98172.00;;;15.44;100.00
55914;BME280;58179;48.776;9.124;2023-06-24T03:22:44;98180.81;;;15.40;100.00
55914;BME280;58179;48.776;9.124;2023-06-24T03:25:10;98181.06;;;15.38;100.00
55914;BME280;58179;48.776;9.124;2023-06-24T03:27:37;98185.59;;;15.38;100.00
55914;BME280;58179;48.776;9.124;2023-06-24T03:30:04;98183.19;;;15.36;100.00
55914;BME280;58179;48.776;9.124;2023-06-24T03:32:32;98185.59;;;15.38;100.00
55914;BME280;58179;48.776;9.124;2023-06-24T03:35:02;98186.66;;;15.37;100.00
55914;BME280;58179;48.776;9.124;2023-06-24T03:37:28;98202.66;;;15.37;100.00
55914;BME280;58179;48.776;9.124;2023-06-24T03:39:55;98208.78;;;15.37;100.00
55914;BME280;58179;48.776;9.124;2023-06-24T03:42:22;98209.59;;;15.38;100.00
55914;BME280;58179;48.776;9.124;2023-06-24T03:44:49;98205.63;;;15.40;100.00
55914;BME280;58179;48.776;9.124;2023-06-24T03:47:15;98209.88;;;15.41;100.00
55914;BME280;58179;48.776;9.124;2023-06-24T03:49:42;98220.28;;;15.43;100.00
55914;BME280;58179;48.776;9.124;2023-06-24T03:52:08;98216.56;;;15.44;100.00
55914;BME280;58179;48.776;9.124;2023-06-24T03:54:35;98220.03;;;15.44;100.00
55914;BME280;58179;48.776;9.124;2023-06-24T03:57:01;98217.09;;;15.46;100.00
55914;BME280;58179;48.776;9.124;2023-06-24T03:59:27;98212.56;;;15.46;100.00
55914;BME280;58179;48.776;9.124;2023-06-24T04:01:55;98223.78;;;15.48;100.00
55914;BME280;58179;48.776;9.124;2023-06-24T04:04:21;98220.59;;;15.52;100.00
55914;BME280;58179;48.776;9.124;2023-06-24T04:06:49;98227.53;;;15.53;100.00
55914;BME280;58179;48.776;9.124;2023-06-24T04:09:15;98236.13;;;15.55;100.00
55914;BME280;58179;48.776;9.124;2023-06-24T04:11:41;98234.25;;;15.60;100.00
55914;BME280;58179;48.776;9.124;2023-06-24T04:14:08;98237.47;;;15.62;100.00
55914;BME280;58179;48.776;9.124;2023-06-24T04:16:35;98235.88;;;15.66;100.00
55914;BME280;58179;48.776;9.124;2023-06-24T04:19:02;98238.84;;;15.70;100.00
55914;BME280;58179;48.776;9.124;2023-06-24T04:21:29;98238.84;;;15.75;100.00
55914;BME280;58179;48.776;9.124;2023-06-24T04:23:55;98245.25;;;15.79;100.00
55914;BME280;58179;48.776;9.124;2023-06-24T04:26:21;98251.41;;;15.84;100.00
55914;BME280;58179;48.776;9.124;2023-06-24T04:28:48;98246.34;;;15.88;100.00
55914;BME280;58179;48.776;9.124;2023-06-24T04:31:14;98244.75;;;15.92;100.00
55914;BME280;58179;48.776;9.124;2023-06-24T04:33:40;98242.38;;;16.01;100.00
55914;BME280;58179;48.776;9.124;2023-06-24T04:36:08;98249.31;;;16.07;100.00
55914;BME280;58179;48.776;9.124;2023-06-24T04:38:34;98247.19;;;16.14;100.00
55914;BME280;58179;48.776;9.124;2023-06-24T04:41:00;98243.19;;;16.21;100.00
55914;BME280;58179;48.776;9.124;2023-06-24T04:43:26;98247.47;;;16.27;100.00
55914;BME280;58179;48.776;9.124;2023-06-24T04:45:55;98251.75;;;16.34;100.00
55914;BME280;58179;48.776;9.124;2023-06-24T04:48:24;98253.06;;;16.41;100.00
55914;BME280;58179;48.776;9.124;2023-06-24T04:50:50;98248.53;;;16.47;100.00
55914;BME280;58179;48.776;9.124;2023-06-24T04:53:18;98249.06;;;16.54;100.00
55914;BME280;58179;48.776;9.124;2023-06-24T04:55:44;98251.50;;;16.60;100.00
55914;BME280;58179;48.776;9.124;2023-06-24T04:58:10;98252.31;;;16.66;100.00
55914;BME280;58179;48.776;9.124;2023-06-24T05:00:36;98248.28;;;16.74;100.00
55914;BME280;58179;48.776;9.124;2023-06-24T05:03:03;98250.69;;;16.80;100.00
55914;BME280;58179;48.776;9.124;2023-06-24T05:05:29;98250.94;;;16.89;100.00
55914;BME280;58179;48.776;9.124;2023-06-24T05:07:55;98253.31;;;16.95;100.00
55914;BME280;58179;48.776;9.124;2023-06-24T05:10:23;98256.03;;;16.90;100.00
55914;BME280;58179;48.776;9.124;2023-06-24T05:12:49;98254.91;;;17.01;100.00
55914;BME280;58179;48.776;9.124;2023-06-24T05:15:15;98262.91;;;17.07;100.00
55914;BME280;58179;48.776;9.124;2023-06-24T05:17:43;98254.91;;;17.01;100.00
55914;BME280;58179;48.776;9.124;2023-06-24T05:20:10;98259.47;;;17.06;100.00
55914;BME280;58179;48.776;9.124;2023-06-24T05:22:36;98266.94;;;16.99;100.00
55914;BME280;58179;48.776;9.124;2023-06-24T05:25:03;98258.41;;;16.97;100.00
55914;BME280;58179;48.776;9.124;2023-06-24T05:27:30;98259.47;;;17.01;100.00
55914;BME280;58179;48.776;9.124;2023-06-24T05:29:56;98263.16;;;17.15;100.00
55914;BME280;58179;48.776;9.124;2023-06-24T05:32:23;98265.31;;;17.08;100.00
55914;BME280;58179;48.776;9.124;2023-06-24T05:34:49;98268.78;;;17.19;100.00
55914;BME280;58179;48.776;9.124;2023-06-24T05:37:15;98269.31;;;17.26;100.00
55914;BME280;58179;48.776;9.124;2023-06-24T05:39:41;98263.38;;;17.44;100.00
55914;BME280;58179;48.776;9.124;2023-06-24T05:42:08;98259.09;;;17.38;100.00
55914;BME280;58179;48.776;9.124;2023-06-24T05:44:35;98261.97;;;17.52;100.00
55914;BME280;58179;48.776;9.124;2023-06-24T05:47:02;98259.81;;;17.59;100.00
55914;BME280;58179;48.776;9.124;2023-06-24T05:49:28;98264.09;;;17.60;100.00
55914;BME280;58179;48.776;9.124;2023-06-24T05:51:55;98264.88;;;17.60;100.00
55914;BME280;58179;48.776;9.124;2023-06-24T05:54:22;98266.53;;;17.66;100.00
55914;BME280;58179;48.776;9.124;2023-06-24T05:56:48;98270.44;;;17.84;100.00
55914;BME280;58179;48.776;9.124;2023-06-24T05:59:14;98268.03;;;17.83;100.00
55914;BME280;58179;48.776;9.124;2023-06-24T06:01:42;98267.13;;;17.97;100.00
55914;BME280;58179;48.776;9.124;2023-06-24T06:04:08;98268.50;;;17.95;100.00
55914;BME280;58179;48.776;9.124;2023-06-24T06:06:34;98268.09;;;18.16;100.00
55914;BME280;58179;48.776;9.124;2023-06-24T06:09:00;98272.97;;;18.09;100.00
55914;BME280;58179;48.776;9.124;2023-06-24T06:11:26;98267.66;;;17.99;100.00
55914;BME280;58179;48.776;9.124;2023-06-24T06:13:53;98275.22;;;17.92;100.00
55914;BME280;58179;48.776;9.124;2023-06-24T06:16:19;98272.84;;;17.86;100.00
55914;BME280;58179;48.776;9.124;2023-06-24T06:18:47;98269.00;;;18.02;100.00
55914;BME280;58179;48.776;9.124;2023-06-24T06:21:13;98266.75;;;18.14;100.00
55914;BME280;58179;48.776;9.124;2023-06-24T06:23:39;98267.84;;;18.13;100.00
55914;BME280;58179;48.776;9.124;2023-06-24T06:26:06;98264.34;;;18.12;100.00
55914;BME280;58179;48.776;9.124;2023-06-24T06:28:32;98257.09;;;18.18;100.00
55914;BME280;58179;48.776;9.124;2023-06-24T06:30:58;98262.94;;;18.25;100.00
55914;BME280;58179;48.776;9.124;2023-06-24T06:33:24;98257.81;;;18.34;100.00
55914;BME280;58179;48.776;9.124;2023-06-24T06:35:52;98262.53;;;18.42;100.00
55914;BME280;58179;48.776;9.124;2023-06-24T06:38:20;98263.03;;;18.49;100.00
55914;BME280;58179;48.776;9.124;2023-06-24T06:40:47;98261.13;;;18.54;100.00
55914;BME280;58179;48.776;9.124;2023-06-24T06:43:13;98251.56;;;18.77;100.00
55914;BME280;58179;48.776;9.124;2023-06-24T06:45:39;98251.50;;;18.82;100.00
55914;BME280;58179;48.776;9.124;2023-06-24T06:48:06;98251.84;;;18.76;100.00
55914;BME280;58179;48.776;9.124;2023-06-24T06:50:33;98253.31;;;18.87;100.00
55914;BME280;58179;48.776;9.124;2023-06-24T06:53:01;98251.69;;;18.91;100.00
55914;BME280;58179;48.776;9.124;2023-06-24T06:55:28;98253.03;;;18.88;100.00
55914;BME280;58179;48.776;9.124;2023-06-24T06:57:54;98247.94;;;18.92;100.00
55914;BME280;58179;48.776;9.124;2023-06-24T07:00:21;98244.66;;;18.95;100.00
55914;BME280;58179;48.776;9.124;2023-06-24T07:02:47;98240.69;;;18.92;100.00
55914;BME280;58179;48.776;9.124;2023-06-24T07:05:13;98246.78;;;18.98;100.00
55914;BME280;58179;48.776;9.124;2023-06-24T07:07:40;98243.84;;;18.94;100.00
55914;BME280;58179;48.776;9.124;2023-06-24T07:10:08;98249.81;;;18.91;100.00
55914;BME280;58179;48.776;9.124;2023-06-24T07:12:35;98241.03;;;18.86;100.00
55914;BME280;58179;48.776;9.124;2023-06-24T07:15:02;98254.94;;;18.88;100.00
55914;BME280;58179;48.776;9.124;2023-06-24T07:17:28;98246.53;;;18.94;100.00
55914;BME280;58179;48.776;9.124;2023-06-24T07:19:54;98255.56;;;19.04;100.00
55914;BME280;58179;48.776;9.124;2023-06-24T07:22:21;98258.50;;;19.07;100.00
55914;BME280;58179;48.776;9.124;2023-06-24T07:24:47;98253.13;;;19.07;100.00
55914;BME280;58179;48.776;9.124;2023-06-24T07:27:16;98256.00;;;19.16;100.00
55914;BME280;58179;48.776;9.124;2023-06-24T07:29:42;98248.00;;;19.11;100.00
55914;BME280;58179;48.776;9.124;2023-06-24T07:32:08;98253.88;;;19.13;100.00
55914;BME280;58179;48.776;9.124;2023-06-24T07:34:35;98250.84;;;19.19;100.00
55914;BME280;58179;48.776;9.124;2023-06-24T07:37:01;98247.88;;;19.21;100.00
55914;BME280;58179;48.776;9.124;2023-06-24T07:39:27;98245.84;;;19.37;100.00
55914;BME280;58179;48.776;9.124;2023-06-24T07:41:53;98245.75;;;19.47;100.00
55914;BME280;58179;48.776;9.124;2023-06-24T07:44:21;98249.53;;;19.64;100.00
55914;BME280;58179;48.776;9.124;2023-06-24T07:46:47;98254.97;;;19.59;100.00
55914;BME280;58179;48.776;9.124;2023-06-24T07:49:14;98249.53;;;19.64;100.00
55914;BME280;58179;48.776;9.124;2023-06-24T07:51:40;98254.56;;;19.71;100.00
55914;BME280;58179;48.776;9.124;2023-06-24T07:54:06;98248.81;;;19.59;100.00
55914;BME280;58179;48.776;9.124;2023-06-24T07:56:33;98244.69;;;19.66;100.00
55914;BME280;58179;48.776;9.124;2023-06-24T07:58:59;98248.63;;;19.74;100.00
55914;BME280;58179;48.776;9.124;2023-06-24T08:01:26;98251.31;;;19.74;100.00
55914;BME280;58179;48.776;9.124;2023-06-24T08:03:53;98243.44;;;19.78;100.00
55914;BME280;58179;48.776;9.124;2023-06-24T08:06:20;98243.84;;;19.90;100.00
55914;BME280;58179;48.776;9.124;2023-06-24T08:08:46;98245.13;;;19.92;100.00
55914;BME280;58179;48.776;9.124;2023-06-24T08:11:13;98246.88;;;20.21;100.00
55914;BME280;58179;48.776;9.124;2023-06-24T08:13:39;98242.59;;;20.38;100.00
55914;BME280;58179;48.776;9.124;2023-06-24T08:16:06;98252.34;;;20.34;100.00
55914;BME280;58179;48.776;9.124;2023-06-24T08:18:33;98244.78;;;20.36;100.00
55914;BME280;58179;48.776;9.124;2023-06-24T08:20:59;98239.59;;;20.40;100.00
55914;BME280;58179;48.776;9.124;2023-06-24T08:23:25;98235.59;;;20.37;100.00
55914;BME280;58179;48.776;9.124;2023-06-24T08:25:52;98235.44;;;20.47;100.00
55914;BME280;58179;48.776;9.124;2023-06-24T08:28:18;98238.44;;;20.46;100.00
55914;BME280;58179;48.776;9.124;2023-06-24T08:30:44;98234.88;;;20.51;100.00
55914;BME280;58179;48.776;9.124;2023-06-24T08:33:10;98235.88;;;20.55;100.00
55914;BME280;58179;48.776;9.124;2023-06-24T08:35:38;98230.16;;;20.75;100.00
55914;BME280;58179;48.776;9.124;2023-06-24T08:38:04;98231.56;;;20.86;98.47
55914;BME280;58179;48.776;9.124;2023-06-24T08:40:30;98230.94;;;20.75;96.34
55914;BME280;58179;48.776;9.124;2023-06-24T08:42:57;98231.34;;;20.82;100.00
55914;BME280;58179;48.776;9.124;2023-06-24T08:45:24;98219.72;;;21.01;100.00
55914;BME280;58179;48.776;9.124;2023-06-24T08:47:55;98219.81;;;20.96;99.56
55914;BME280;58179;48.776;9.124;2023-06-24T08:50:23;98232.47;;;21.09;100.00
55914;BME280;58179;48.776;9.124;2023-06-24T08:52:55;98231.09;;;21.11;100.00
55914;BME280;58179;48.776;9.124;2023-06-24T08:55:23;98224.53;;;21.17;100.00
55914;BME280;58179;48.776;9.124;2023-06-24T08:57:51;98230.63;;;21.23;100.00
55914;BME280;58179;48.776;9.124;2023-06-24T09:00:18;98228.00;;;21.45;100.00
55914;BME280;58179;48.776;9.124;2023-06-24T09:02:45;98228.69;;;21.51;100.00
55914;BME280;58179;48.776;9.124;2023-06-24T09:05:12;98225.53;;;21.49;100.00
55914;BME280;58179;48.776;9.124;2023-06-24T09:07:38;98228.63;;;21.92;88.45
55914;BME280;58179;48.776;9.124;2023-06-24T09:10:08;98222.56;;;21.73;79.86
55914;BME280;58179;48.776;9.124;2023-06-24T09:12:36;98228.75;;;21.73;96.16
55914;BME280;58179;48.776;9.124;2023-06-24T09:15:03;98223.28;;;21.78;100.00
55914;BME280;58179;48.776;9.124;2023-06-24T09:17:30;98220.97;;;21.85;100.00
55914;BME280;58179;48.776;9.124;2023-06-24T09:20:04;98219.44;;;21.93;100.00
55914;BME280;58179;48.776;9.124;2023-06-24T09:22:31;98223.94;;;21.97;100.00
55914;BME280;58179;48.776;9.124;2023-06-24T09:25:01;98225.50;;;22.12;100.00
55914;BME280;58179;48.776;9.124;2023-06-24T09:27:31;98210.06;;;22.26;100.00
55914;BME280;58179;48.776;9.124;2023-06-24T09:29:58;98205.56;;;22.44;95.16
55914;BME280;58179;48.776;9.124;2023-06-24T09:32:29;98205.06;;;22.64;100.00
55914;BME280;58179;48.776;9.124;2023-06-24T09:34:55;98194.25;;;22.64;100.00
55914;BME280;58179;48.776;9.124;2023-06-24T09:37:22;98196.16;;;22.64;100.00
55914;BME280;58179;48.776;9.124;2023-06-24T09:39:53;98194.44;;;22.68;100.00
55914;BME280;58179;48.776;9.124;2023-06-24T09:42:21;98189.84;;;22.68;100.00
55914;BME280;58179;48.776;9.124;2023-06-24T09:44:54;98186.09;;;22.56;100.00
55914;BME280;58179;48.776;9.124;2023-06-24T09:47:21;98180.09;;;22.59;100.00
55914;BME280;58179;48.776;9.124;2023-06-24T09:49:51;98183.31;;;22.61;100.00
55914;BME280;58179;48.776;9.124;2023-06-24T09:52:17;98180.31;;;22.71;100.00
55914;BME280;58179;48.776;9.124;2023-06-24T09:54:48;98188.50;;;22.80;100.00
55914;BME280;58179;48.776;9.124;2023-06-24T09:57:18;98173.81;;;23.03;100.00
55914;BME280;58179;48.776;9.124;2023-06-24T09:59:47;98174.50;;;23.17;100.00
55914;BME280;58179;48.776;9.124;2023-06-24T10:02:16;98182.66;;;23.34;100.00
55914;BME280;58179;48.776;9.124;2023-06-24T10:04:44;98172.72;;;23.52;100.00
55914;BME280;58179;48.776;9.124;2023-06-24T10:07:11;98170.97;;;23.65;100.00
55914;BME280;58179;48.776;9.124;2023-06-24T10:09:39;98167.31;;;23.52;95.91
55914;BME280;58179;48.776;9.124;2023-06-24T10:12:06;98164.28;;;23.62;100.00
55914;BME280;58179;48.776;9.124;2023-06-24T10:14:32;98169.69;;;23.62;100.00
55914;BME280;58179;48.776;9.124;2023-06-24T10:17:02;98169.84;;;23.48;87.81
55914;BME280;58179;48.776;9.124;2023-06-24T10:19:30;98163.66;;;23.57;89.23
55914;BME280;58179;48.776;9.124;2023-06-24T10:22:03;98160.97;;;23.74;100.00
55914;BME280;58179;48.776;9.124;2023-06-24T10:24:34;98172.91;;;23.90;100.00
55914;BME280;58179;48.776;9.124;2023-06-24T10:27:04;98157.44;;;23.99;100.00
55914;BME280;58179;48.776;9.124;2023-06-24T10:29:32;98151.25;;;24.07;100.00
55914;BME280;58179;48.776;9.124;2023-06-24T10:32:05;98157.75;;;24.15;100.00
55914;BME280;58179;48.776;9.124;2023-06-24T10:34:38;98147.09;;;24.10;98.74
55914;BME280;58179;48.776;9.124;2023-06-24T10:37:08;98146.63;;;24.16;100.00
55914;BME280;58179;48.776;9.124;2023-06-24T10:39:52;98144.72;;;24.34;100.00
55914;BME280;58179;48.776;9.124;2023-06-24T10:42:36;98144.69;;;24.43;100.00
55914;BME280;58179;48.776;9.124;2023-06-24T10:45:18;98139.91;;;24.40;95.92
55914;BME280;58179;48.776;9.124;2023-06-24T10:47:45;98129.69;;;24.54;100.00
55914;BME280;58179;48.776;9.124;2023-06-24T10:50:14;98134.09;;;24.67;100.00
55914;BME280;58179;48.776;9.124;2023-06-24T10:52:42;98136.88;;;24.88;100.00
55914;BME280;58179;48.776;9.124;2023-06-24T10:55:10;98126.72;;;24.76;84.58
55914;BME280;58179;48.776;9.124;2023-06-24T10:57:38;98130.66;;;24.96;78.32
55914;BME280;58179;48.776;9.124;2023-06-24T11:00:06;98128.75;;;24.88;82.48
55914;BME280;58179;48.776;9.124;2023-06-24T11:02:34;98120.00;;;24.82;84.00
55914;BME280;58179;48.776;9.124;2023-06-24T11:05:01;98113.38;;;24.71;76.75
55914;BME280;58179;48.776;9.124;2023-06-24T11:07:30;98115.53;;;24.86;69.19
55914;BME280;58179;48.776;9.124;2023-06-24T11:10:00;98109.09;;;24.70;76.73
55914;BME280;58179;48.776;9.124;2023-06-24T11:12:29;98106.66;;;24.77;81.33
55914;BME280;58179;48.776;9.124;2023-06-24T11:14:56;98109.19;;;24.82;90.78
55914;BME280;58179;48.776;9.124;2023-06-24T11:17:23;98105.41;;;24.66;77.21
55914;BME280;58179;48.776;9.124;2023-06-24T11:19:52;98105.66;;;24.44;74.57
55914;BME280;58179;48.776;9.124;2023-06-24T11:22:18;98102.94;;;24.52;81.68
55914;BME280;58179;48.776;9.124;2023-06-24T11:24:46;98098.06;;;24.75;90.03
55914;BME280;58179;48.776;9.124;2023-06-24T11:27:12;98102.47;;;24.88;95.51
55914;BME280;58179;48.776;9.124;2023-06-24T11:29:38;98090.63;;;25.01;97.01
55914;BME280;58179;48.776;9.124;2023-06-24T11:32:07;98099.78;;;25.18;96.95
55914;BME280;58179;48.776;9.124;2023-06-24T11:34:35;98092.34;;;25.06;70.99
55914;BME280;58179;48.776;9.124;2023-06-24T11:37:10;98082.69;;;25.26;84.20
55914;BME280;58179;48.776;9.124;2023-06-24T11:39:38;98091.00;;;25.41;91.22
55914;BME280;58179;48.776;9.124;2023-06-24T11:42:08;98082.00;;;25.50;84.44
55914;BME280;58179;48.776;9.124;2023-06-24T11:44:35;98082.53;;;25.64;85.15
55914;BME280;58179;48.776;9.124;2023-06-24T11:47:05;98080.03;;;25.59;77.09
55914;BME280;58179;48.776;9.124;2023-06-24T11:49:47;98080.78;;;25.68;82.11
55914;BME280;58179;48.776;9.124;2023-06-24T11:52:13;98069.56;;;25.49;64.58
55914;BME280;58179;48.776;9.124;2023-06-24T11:54:41;98070.78;;;25.18;57.89
55914;BME280;58179;48.776;9.124;2023-06-24T11:57:10;98063.56;;;25.22;68.42
55914;BME280;58179;48.776;9.124;2023-06-24T11:59:39;98062.22;;;25.28;77.92
55914;BME280;58179;48.776;9.124;2023-06-24T12:02:05;98065.22;;;25.35;85.14
55914;BME280;58179;48.776;9.124;2023-06-24T12:04:32;98063.81;;;25.50;90.40
55914;BME280;58179;48.776;9.124;2023-06-24T12:06:58;98063.97;;;25.74;93.33
55914;BME280;58179;48.776;9.124;2023-06-24T12:09:25;98065.72;;;25.91;94.03
55914;BME280;58179;48.776;9.124;2023-06-24T12:11:52;98059.56;;;25.82;72.72
55914;BME280;58179;48.776;9.124;2023-06-24T12:14:19;98056.13;;;25.94;81.72
55914;BME280;58179;48.776;9.124;2023-06-24T12:16:46;98045.28;;;26.06;85.24
55914;BME280;58179;48.776;9.124;2023-06-24T12:19:12;98035.56;;;26.05;82.32
55914;BME280;58179;48.776;9.124;2023-06-24T12:21:38;98026.00;;;25.87;64.23
55914;BME280;58179;48.776;9.124;2023-06-24T12:24:05;98024.19;;;25.58;59.23
55914;BME280;58179;48.776;9.124;2023-06-24T12:26:31;98030.28;;;25.75;68.98
55914;BME280;58179;48.776;9.124;2023-06-24T12:28:58;98022.63;;;25.77;73.04
55914;BME280;58179;48.776;9.124;2023-06-24T12:31:25;98018.81;;;25.91;80.93
55914;BME280;58179;48.776;9.124;2023-06-24T12:33:52;98016.81;;;26.00;82.85
55914;BME280;58179;48.776;9.124;2023-06-24T12:36:18;98010.50;;;26.08;80.67
55914;BME280;58179;48.776;9.124;2023-06-24T12:38:44;98014.22;;;26.15;83.36
55914;BME280;58179;48.776;9.124;2023-06-24T12:41:10;98018.25;;;26.09;65.77
55914;BME280;58179;48.776;9.124;2023-06-24T12:43:36;98015.88;;;25.96;65.52
55914;BME280;58179;48.776;9.124;2023-06-24T12:46:03;98006.97;;;26.07;75.23
55914;BME280;58179;48.776;9.124;2023-06-24T12:48:30;98005.91;;;25.88;60.09
55914;BME280;58179;48.776;9.124;2023-06-24T12:50:56;97995.03;;;26.33;61.02
55914;BME280;58179;48.776;9.124;2023-06-24T12:53:23;97996.53;;;26.30;66.79
55914;BME280;58179;48.776;9.124;2023-06-24T12:55:49;97986.50;;;26.10;56.33